createdAt,value
2024-05-09T00:00:31.203Z,7.4
2024-05-09T00:01:39.100Z,7.3
2024-05-09T00:02:51.137Z,7.4
2024-05-09T00:04:03.186Z,7.2
2024-05-09T00:05:15.199Z,7.3
2024-05-09T00:06:27.079Z,7.3
2024-05-09T00:07:39.075Z,7.2
2024-05-09T00:08:51.094Z,7.4
2024-05-09T00:10:03.219Z,7.3
2024-05-09T00:11:15.100Z,7.4
2024-05-09T00:12:27.090Z,7.4
2024-05-09T00:13:39.215Z,7.5
2024-05-09T00:14:51.104Z,7.4
2024-05-09T00:16:03.077Z,7.3
2024-05-09T00:17:15.110Z,7.2
2024-05-09T00:18:27.232Z,7.2
2024-05-09T00:19:39.301Z,7.3
2024-05-09T00:20:51.087Z,7.1
2024-05-09T00:22:03.098Z,7.2
2024-05-09T00:23:15.091Z,7.2
2024-05-09T00:24:27.102Z,7.1
2024-05-09T00:25:39.099Z,6.9
2024-05-09T00:26:51.082Z,6.9
2024-05-09T00:28:03.086Z,6.9
2024-05-09T00:29:15.084Z,7.1
2024-05-09T00:30:31.290Z,7
2024-05-09T00:31:39.081Z,7
2024-05-09T00:34:03.275Z,7.2
2024-05-09T00:35:15.110Z,7.1
2024-05-09T00:36:27.068Z,7.1
2024-05-09T00:37:39.085Z,7
2024-05-09T00:38:51.085Z,7
2024-05-09T00:40:03.534Z,6.9
2024-05-09T00:41:17.090Z,6.9
2024-05-09T00:42:27.098Z,7
2024-05-09T00:43:39.093Z,7
2024-05-09T00:44:51.085Z,7
2024-05-09T00:46:03.081Z,6.9
2024-05-09T00:47:15.113Z,6.9
2024-05-09T00:48:27.268Z,6.9
2024-05-09T00:49:39.371Z,6.9
2024-05-09T00:50:51.154Z,6.9
2024-05-09T00:52:03.461Z,6.9
2024-05-09T00:53:15.895Z,6.8
2024-05-09T00:54:27.503Z,6.8
2024-05-09T00:55:39.505Z,6.8
2024-05-09T00:56:51.490Z,6.9
2024-05-09T00:58:03.467Z,6.8
2024-05-09T00:59:15.570Z,6.8
2024-05-09T01:00:32.038Z,6.8
2024-05-09T01:01:39.509Z,6.7
2024-05-09T01:02:51.522Z,6.7
2024-05-09T01:04:03.587Z,6.9
2024-05-09T01:05:15.703Z,6.9
2024-05-09T01:06:27.455Z,6.8
2024-05-09T01:07:39.571Z,6.8
2024-05-09T01:08:51.484Z,6.8
2024-05-09T01:10:05.482Z,6.8
2024-05-09T01:11:15.601Z,6.8
2024-05-09T01:13:39.453Z,6.7
2024-05-09T01:14:51.607Z,6.7
2024-05-09T01:16:03.472Z,6.7
2024-05-09T01:17:15.549Z,6.7
2024-05-09T01:18:27.585Z,6.7
2024-05-09T01:19:39.535Z,6.6
2024-05-09T01:20:51.549Z,6.6
2024-05-09T01:22:03.455Z,6.8
2024-05-09T01:23:16.293Z,6.8
2024-05-09T01:24:27.473Z,6.8
2024-05-09T01:25:39.506Z,6.8
2024-05-09T01:26:51.507Z,6.8
2024-05-09T01:28:03.478Z,6.7
2024-05-09T01:29:15.494Z,6.7
2024-05-09T01:30:31.818Z,6.5
2024-05-09T01:31:39.509Z,6.5
2024-05-09T01:32:51.790Z,6.6
2024-05-09T01:34:03.597Z,6.6
2024-05-09T01:35:15.483Z,6.5
2024-05-09T01:36:27.500Z,6.5
2024-05-09T01:37:39.514Z,6.4
2024-05-09T01:38:51.518Z,6.4
2024-05-09T01:40:03.633Z,6.3
2024-05-09T01:41:15.498Z,6.4
2024-05-09T01:42:27.504Z,6.4
2024-05-09T01:43:39.507Z,6.3
2024-05-09T01:44:51.532Z,6.3
2024-05-09T01:46:03.690Z,6.3
2024-05-09T01:47:15.589Z,6.3
2024-05-09T01:48:27.646Z,6.4
2024-05-09T01:49:39.547Z,6.2
2024-05-09T01:50:51.521Z,6.2
2024-05-09T01:52:03.870Z,6.2
2024-05-09T01:53:15.886Z,6.3
2024-05-09T01:54:27.896Z,6.3
2024-05-09T01:55:39.870Z,6.3
2024-05-09T01:56:51.876Z,6.3
2024-05-09T01:58:03.878Z,6.4
2024-05-09T01:59:15.881Z,6.4
2024-05-09T02:00:33.832Z,6.3
2024-05-09T02:01:54.907Z,6.3
2024-05-09T02:02:52.088Z,6.3
2024-05-09T02:04:04.075Z,6.5
2024-05-09T02:05:16.095Z,6.3
2024-05-09T02:06:27.876Z,6.3
2024-05-09T02:07:39.892Z,6.2
2024-05-09T02:08:51.887Z,6.2
2024-05-09T02:10:08.517Z,6.2
2024-05-09T02:11:15.932Z,6.2
2024-05-09T02:13:39.878Z,6.2
2024-05-09T02:14:51.879Z,6.1
2024-05-09T02:16:03.937Z,6.1
2024-05-09T02:17:15.968Z,6
2024-05-09T02:18:27.985Z,6.2
2024-05-09T02:19:39.875Z,6.1
2024-05-09T02:20:51.907Z,6.1
2024-05-09T02:22:03.943Z,6
2024-05-09T02:23:15.932Z,6
2024-05-09T02:24:28.083Z,6
2024-05-09T02:25:39.903Z,6
2024-05-09T02:26:51.887Z,5.9
2024-05-09T02:28:03.858Z,5.9
2024-05-09T02:29:15.894Z,5.9
2024-05-09T02:30:35.626Z,5.9
2024-05-09T02:31:39.903Z,5.9
2024-05-09T02:32:52.032Z,5.8
2024-05-09T02:34:04.027Z,5.8
2024-05-09T02:35:15.950Z,5.9
2024-05-09T02:36:27.873Z,5.9
2024-05-09T02:37:39.956Z,5.9
2024-05-09T02:38:51.876Z,5.8
2024-05-09T02:40:05.573Z,5.9
2024-05-09T02:41:15.940Z,5.9
2024-05-09T02:42:27.864Z,5.9
2024-05-09T02:43:39.885Z,5.9
2024-05-09T02:44:51.942Z,5.9
2024-05-09T02:46:03.892Z,5.8
2024-05-09T02:47:15.994Z,5.8
2024-05-09T02:48:27.992Z,5.7
2024-05-09T02:49:39.925Z,5.7
2024-05-09T02:50:52.004Z,5.7
2024-05-09T02:52:04.298Z,5.7
2024-05-09T02:53:16.374Z,5.7
2024-05-09T02:54:28.257Z,5.7
2024-05-09T02:55:40.274Z,5.7
2024-05-09T02:56:52.253Z,5.7
2024-05-09T02:58:04.294Z,5.7
2024-05-09T02:59:16.297Z,5.7
2024-05-09T03:00:34.134Z,5.7
2024-05-09T03:01:40.383Z,5.7
2024-05-09T03:02:52.379Z,5.7
2024-05-09T03:04:04.443Z,5.7
2024-05-09T03:05:16.383Z,5.7
2024-05-09T03:06:28.286Z,5.6
2024-05-09T03:07:40.284Z,5.6
2024-05-09T03:08:52.296Z,5.6
2024-05-09T03:10:04.511Z,5.5
2024-05-09T03:11:16.359Z,5.6
2024-05-09T03:13:40.256Z,5.7
2024-05-09T03:14:52.320Z,5.7
2024-05-09T03:16:04.296Z,5.6
2024-05-09T03:17:16.388Z,5.6
2024-05-09T03:18:28.421Z,5.6
2024-05-09T03:19:40.285Z,5.6
2024-05-09T03:20:52.334Z,5.6
2024-05-09T03:22:04.268Z,5.6
2024-05-09T03:23:16.326Z,5.6
2024-05-09T03:24:28.308Z,5.6
2024-05-09T03:25:40.292Z,5.5
2024-05-09T03:26:52.301Z,5.6
2024-05-09T03:28:04.330Z,5.6
2024-05-09T03:29:16.294Z,5.6
2024-05-09T03:30:30.735Z,5.6
2024-05-09T03:31:40.327Z,5.7
2024-05-09T03:32:52.356Z,5.7
2024-05-09T03:34:04.592Z,5.7
2024-05-09T03:35:16.314Z,5.7
2024-05-09T03:36:28.295Z,5.7
2024-05-09T03:37:40.264Z,5.7
2024-05-09T03:38:52.308Z,5.7
2024-05-09T03:40:07.232Z,5.7
2024-05-09T03:41:16.327Z,5.7
2024-05-09T03:42:28.286Z,5.6
2024-05-09T03:43:40.302Z,5.6
2024-05-09T03:44:52.306Z,5.5
2024-05-09T03:46:04.306Z,5.5
2024-05-09T03:47:16.417Z,5.5
2024-05-09T03:48:28.342Z,5.5
2024-05-09T03:49:40.407Z,5.4
2024-05-09T03:50:52.412Z,5.4
2024-05-09T03:52:04.671Z,5.4
2024-05-09T03:53:16.721Z,5.4
2024-05-09T03:54:28.671Z,5.4
2024-05-09T03:55:40.706Z,5.4
2024-05-09T03:56:52.666Z,5.5
2024-05-09T03:58:04.700Z,5.5
2024-05-09T03:59:16.715Z,5.5
2024-05-09T04:00:34.364Z,5.5
2024-05-09T04:02:04.731Z,5.5
2024-05-09T04:03:16.933Z,5.5
2024-05-09T04:04:28.772Z,5.5
2024-05-09T04:05:41.717Z,5.5
2024-05-09T04:06:52.690Z,5.5
2024-05-09T04:08:04.786Z,5.5
2024-05-09T04:09:16.698Z,5.4
2024-05-09T04:10:32.687Z,5.4
2024-05-09T04:11:40.785Z,5.5
2024-05-09T04:12:52.835Z,5.5
2024-05-09T04:14:04.739Z,5.6
2024-05-09T04:15:16.738Z,5.7
2024-05-09T04:16:28.683Z,5.8
2024-05-09T04:17:40.960Z,5.7
2024-05-09T04:18:52.794Z,5.8
2024-05-09T04:20:06.494Z,5.8
2024-05-09T04:21:16.766Z,5.9
2024-05-09T04:22:28.675Z,5.9
2024-05-09T04:23:40.739Z,5.9
2024-05-09T04:24:52.678Z,6
2024-05-09T04:26:04.757Z,6
2024-05-09T04:27:16.689Z,6
2024-05-09T04:28:28.692Z,6
2024-05-09T04:29:40.705Z,6
2024-05-09T04:30:52.694Z,6
2024-05-09T04:32:04.775Z,6
2024-05-09T04:33:16.797Z,6
2024-05-09T04:34:28.743Z,5.9
2024-05-09T04:35:40.698Z,6
2024-05-09T04:36:52.712Z,6
2024-05-09T04:38:04.743Z,6
2024-05-09T04:39:16.692Z,6
2024-05-09T04:40:32.558Z,5.9
2024-05-09T04:41:40.718Z,5.9
2024-05-09T04:42:52.739Z,5.9
2024-05-09T04:44:04.774Z,5.9
2024-05-09T04:45:16.709Z,6
2024-05-09T04:46:28.707Z,6
2024-05-09T04:47:40.871Z,6
2024-05-09T04:48:53.111Z,6
2024-05-09T04:50:05.603Z,6
2024-05-09T04:51:16.718Z,6
2024-05-09T04:53:41.278Z,6.1
2024-05-09T04:54:54.664Z,6.1
2024-05-09T04:56:05.123Z,6.2
2024-05-09T04:57:17.069Z,6.2
2024-05-09T04:58:29.119Z,6.3
2024-05-09T04:59:41.089Z,6.3
2024-05-09T05:00:53.122Z,6.4
2024-05-09T05:02:05.125Z,6.4
2024-05-09T05:03:17.652Z,6.4
2024-05-09T05:04:29.103Z,6.4
2024-05-09T05:05:41.395Z,6.5
2024-05-09T05:06:53.124Z,6.5
2024-05-09T05:08:05.217Z,6.7
2024-05-09T05:09:17.099Z,6.7
2024-05-09T05:10:33.200Z,6.7
2024-05-09T05:11:41.104Z,6.8
2024-05-09T05:12:53.076Z,6.8
2024-05-09T05:14:05.125Z,6.9
2024-05-09T05:15:17.082Z,6.7
2024-05-09T05:16:29.105Z,6.8
2024-05-09T05:17:41.295Z,6.8
2024-05-09T05:18:53.271Z,6.9
2024-05-09T05:20:05.927Z,6.9
2024-05-09T05:21:17.083Z,6.9
2024-05-09T05:23:41.221Z,6.9
2024-05-09T05:24:53.093Z,6.9
2024-05-09T05:26:05.120Z,7
2024-05-09T05:27:17.091Z,7
2024-05-09T05:28:29.114Z,7.1
2024-05-09T05:29:41.149Z,7.1
2024-05-09T05:30:53.092Z,7.1
2024-05-09T05:32:05.141Z,7.1
2024-05-09T05:33:17.182Z,7.1
2024-05-09T05:34:29.076Z,7
2024-05-09T05:35:41.333Z,7.1
2024-05-09T05:36:53.070Z,7.2
2024-05-09T05:38:05.187Z,7.2
2024-05-09T05:39:17.125Z,7.3
2024-05-09T05:40:35.343Z,7.2
2024-05-09T05:41:41.159Z,7.2
2024-05-09T05:42:53.083Z,7.3
2024-05-09T05:44:05.114Z,7.4
2024-05-09T05:45:17.083Z,7.4
2024-05-09T05:46:29.091Z,7.3
2024-05-09T05:47:41.535Z,7.3
2024-05-09T05:48:53.213Z,7.3
2024-05-09T05:50:07.176Z,7.4
2024-05-09T05:51:17.162Z,7.5
2024-05-09T05:52:29.162Z,7.5
2024-05-09T05:53:41.307Z,7.6
2024-05-09T05:54:53.196Z,7.6
2024-05-09T05:56:05.186Z,7.6
2024-05-09T05:57:17.191Z,7.6
2024-05-09T05:58:29.186Z,7.7
2024-05-09T05:59:41.214Z,7.8
2024-05-09T06:00:53.360Z,7.7
2024-05-09T06:02:05.239Z,7.8
2024-05-09T06:03:17.215Z,7.8
2024-05-09T06:04:29.282Z,7.8
2024-05-09T06:05:41.336Z,7.7
2024-05-09T06:06:53.186Z,7.7
2024-05-09T06:08:05.205Z,7.8
2024-05-09T06:09:17.184Z,7.8
2024-05-09T06:10:34.727Z,7.7
2024-05-09T06:11:41.317Z,7.5
2024-05-09T06:12:53.162Z,7.6
2024-05-09T06:14:05.219Z,7.8
2024-05-09T06:15:17.218Z,7.2
2024-05-09T06:16:29.209Z,7.4
2024-05-09T06:17:41.488Z,7.6
2024-05-09T06:18:53.290Z,7.8
2024-05-09T06:20:07.365Z,8.1
2024-05-09T06:21:17.458Z,8.1
2024-05-09T06:22:29.201Z,8.2
2024-05-09T06:23:41.224Z,8.3
2024-05-09T06:24:53.157Z,8.2
2024-05-09T06:26:05.255Z,8.3
2024-05-09T06:27:17.161Z,8.3
2024-05-09T06:28:29.209Z,8
2024-05-09T06:29:41.212Z,8.1
2024-05-09T06:30:53.195Z,8.2
2024-05-09T06:32:05.222Z,8.3
2024-05-09T06:33:17.377Z,8.3
2024-05-09T06:34:29.244Z,8.1
2024-05-09T06:35:41.585Z,8.4
2024-05-09T06:36:53.183Z,8.4
2024-05-09T06:38:05.262Z,8.4
2024-05-09T06:39:17.175Z,8.2
2024-05-09T06:40:34.419Z,8.3
2024-05-09T06:41:41.251Z,8.5
2024-05-09T06:42:53.191Z,9
2024-05-09T06:44:05.273Z,9
2024-05-09T06:45:17.189Z,8.8
2024-05-09T06:46:29.270Z,8.6
2024-05-09T06:47:41.398Z,8.6
2024-05-09T06:48:53.593Z,8.3
2024-05-09T06:50:10.518Z,8.6
2024-05-09T06:51:17.352Z,8.8
2024-05-09T06:53:41.291Z,9
2024-05-09T06:54:53.328Z,9
2024-05-09T06:56:05.344Z,9.2
2024-05-09T06:57:17.290Z,9.2
2024-05-09T06:58:29.516Z,9.2
2024-05-09T06:59:41.352Z,9.1
2024-05-09T07:00:53.332Z,8.5
2024-05-09T07:02:05.327Z,8.2
2024-05-09T07:03:18.274Z,8.3
2024-05-09T07:04:29.386Z,8.3
2024-05-09T07:05:41.303Z,8.8
2024-05-09T07:06:53.304Z,8.2
2024-05-09T07:08:05.313Z,8.5
2024-05-09T07:09:17.314Z,8.5
2024-05-09T07:10:34.276Z,8.6
2024-05-09T07:11:41.360Z,8.5
2024-05-09T07:12:53.290Z,8.6
2024-05-09T07:14:05.334Z,8.6
2024-05-09T07:15:17.328Z,8.6
2024-05-09T07:16:29.320Z,8.8
2024-05-09T07:17:41.453Z,8.6
2024-05-09T07:18:53.426Z,8.6
2024-05-09T07:20:06.810Z,8.4
2024-05-09T07:21:17.342Z,8.1
2024-05-09T07:22:29.291Z,8.1
2024-05-09T07:23:43.038Z,8.2
2024-05-09T07:24:53.287Z,7.8
2024-05-09T07:26:05.338Z,7.7
2024-05-09T07:27:17.302Z,8.5
2024-05-09T07:28:29.312Z,8.6
2024-05-09T07:29:41.303Z,8.6
2024-05-09T07:30:53.306Z,8.4
2024-05-09T07:32:05.348Z,8.8
2024-05-09T07:33:17.529Z,8.6
2024-05-09T07:34:29.394Z,8.1
2024-05-09T07:35:41.325Z,8
2024-05-09T07:36:53.268Z,7.4
2024-05-09T07:38:05.312Z,7.3
2024-05-09T07:39:17.297Z,7.7
2024-05-09T07:40:34.716Z,7.8
2024-05-09T07:41:41.297Z,8.2
2024-05-09T07:42:53.300Z,8.4
2024-05-09T07:44:05.303Z,8.7
2024-05-09T07:47:04.291Z,8.4
2024-05-09T07:48:27.451Z,8.2
2024-05-09T07:51:31.240Z,8.5
2024-05-09T07:53:43.826Z,8.3
2024-05-09T07:54:53.820Z,8.3
2024-05-09T07:56:05.893Z,8
2024-05-09T07:57:17.815Z,8
2024-05-09T07:58:29.737Z,7.4
2024-05-09T07:59:41.731Z,6.8
2024-05-09T08:00:53.771Z,7.1
2024-05-09T08:02:05.899Z,7.5
2024-05-09T08:03:17.968Z,7.5
2024-05-09T08:04:29.763Z,7.2
2024-05-09T08:05:41.819Z,7.3
2024-05-09T08:06:53.832Z,7.5
2024-05-09T08:08:05.747Z,7.3
2024-05-09T08:09:20.735Z,7
2024-05-09T08:10:29.819Z,7.6
2024-05-09T08:11:41.771Z,7.7
2024-05-09T08:12:53.736Z,7.8
2024-05-09T08:14:05.718Z,8.3
2024-05-09T08:15:17.746Z,8.2
2024-05-09T08:16:29.838Z,8.1
2024-05-09T08:17:41.804Z,8.7
2024-05-09T08:18:53.836Z,9.3
2024-05-09T08:20:05.854Z,9.5
2024-05-09T08:21:17.743Z,9
2024-05-09T08:23:41.745Z,8.1
2024-05-09T08:24:53.770Z,8.2
2024-05-09T08:26:05.725Z,7.6
2024-05-09T08:27:17.747Z,7.4
2024-05-09T08:28:29.788Z,7.7
2024-05-09T08:29:41.799Z,7.9
2024-05-09T08:30:53.866Z,8
2024-05-09T08:32:05.873Z,8.1
2024-05-09T08:33:17.895Z,7.2
2024-05-09T08:34:29.863Z,7.9
2024-05-09T08:35:41.724Z,8.3
2024-05-09T08:36:54.247Z,8.5
2024-05-09T08:38:05.860Z,8.1
2024-05-09T08:39:17.736Z,7.2
2024-05-09T08:40:33.274Z,7.2
2024-05-09T08:41:41.748Z,7.2
2024-05-09T08:42:53.756Z,7.6
2024-05-09T08:44:05.728Z,7.3
2024-05-09T08:45:17.881Z,7.3
2024-05-09T08:46:29.840Z,7.4
2024-05-09T08:47:41.791Z,6.8
2024-05-09T08:48:53.912Z,6.6
2024-05-09T08:50:08.618Z,7.2
2024-05-09T08:51:18.193Z,7.5
2024-05-09T08:52:30.200Z,7.2
2024-05-09T08:53:42.170Z,6.9
2024-05-09T08:54:54.373Z,6.9
2024-05-09T08:56:06.163Z,7
2024-05-09T08:57:18.173Z,6.7
2024-05-09T08:58:30.170Z,6.9
2024-05-09T08:59:42.204Z,6.2
2024-05-09T09:00:54.235Z,6.9
2024-05-09T09:02:06.235Z,6.8
2024-05-09T09:03:18.494Z,7.1
2024-05-09T09:04:30.308Z,7.2
2024-05-09T09:05:42.274Z,8.1
2024-05-09T09:06:56.547Z,6.8
2024-05-09T09:08:06.200Z,6.1
2024-05-09T09:09:18.166Z,6.6
2024-05-09T09:10:31.734Z,6.6
2024-05-09T09:11:42.219Z,6.7
2024-05-09T09:12:54.211Z,6.7
2024-05-09T09:14:06.167Z,7
2024-05-09T09:15:18.151Z,6.8
2024-05-09T09:16:30.163Z,6.8
2024-05-09T09:17:42.318Z,6.8
2024-05-09T09:18:54.225Z,6.8
2024-05-09T09:21:18.167Z,6.8
2024-05-09T09:23:42.223Z,7.2
2024-05-09T09:24:54.174Z,6.8
2024-05-09T09:26:06.154Z,6.6
2024-05-09T09:27:18.186Z,6.6
2024-05-09T09:28:30.296Z,6.6
2024-05-09T09:29:42.146Z,6.9
2024-05-09T09:30:54.180Z,7.2
2024-05-09T09:32:06.282Z,7.2
2024-05-09T09:33:18.304Z,6.8
2024-05-09T09:34:30.276Z,6.8
2024-05-09T09:35:42.167Z,6.2
2024-05-09T09:36:54.167Z,6.6
2024-05-09T09:38:06.139Z,6.3
2024-05-09T09:39:18.180Z,5.9
2024-05-09T09:40:32.058Z,6.3
2024-05-09T09:41:42.170Z,6.8
2024-05-09T09:42:54.165Z,7.1
2024-05-09T09:44:06.160Z,7.1
2024-05-09T09:45:18.170Z,7
2024-05-09T09:46:30.346Z,6.7
2024-05-09T09:47:42.275Z,7.6
2024-05-09T09:48:54.188Z,6.6
2024-05-09T09:50:09.502Z,7.6
2024-05-09T09:54:06.539Z,6.2
2024-05-09T09:55:18.563Z,6.2
2024-05-09T09:56:30.555Z,5.6
2024-05-09T09:57:42.581Z,6.3
2024-05-09T09:58:54.554Z,6.7
2024-05-09T10:00:09.359Z,6.4
2024-05-09T10:01:18.587Z,6.8
2024-05-09T10:03:42.622Z,7.4
2024-05-09T10:04:54.648Z,7.4
2024-05-09T10:06:06.549Z,6.4
2024-05-09T10:07:18.604Z,6.8
2024-05-09T10:08:30.552Z,6.4
2024-05-09T10:09:42.552Z,6.4
2024-05-09T10:10:54.665Z,6.8
2024-05-09T10:12:08.222Z,7
2024-05-09T10:13:18.625Z,7.1
2024-05-09T10:14:30.529Z,6.4
2024-05-09T10:15:42.573Z,5.8
2024-05-09T10:16:54.546Z,6.6
2024-05-09T10:18:06.702Z,5.6
2024-05-09T10:19:18.645Z,6.7
2024-05-09T10:21:42.554Z,6.4
2024-05-09T10:22:54.540Z,7.5
2024-05-09T10:24:06.562Z,7.6
2024-05-09T10:25:18.557Z,7.1
2024-05-09T10:26:30.531Z,7.2
2024-05-09T10:27:42.547Z,7.5
2024-05-09T10:28:54.545Z,7.2
2024-05-09T10:30:09.075Z,7.2
2024-05-09T10:31:18.563Z,7.4
2024-05-09T10:33:42.670Z,7.7
2024-05-09T10:34:54.552Z,7.6
2024-05-09T10:36:06.539Z,7.8
2024-05-09T10:37:18.567Z,7.5
2024-05-09T10:38:30.533Z,7.4
2024-05-09T10:39:42.621Z,7.3
2024-05-09T10:40:54.532Z,7.3
2024-05-09T10:42:06.554Z,7.3
2024-05-09T10:43:18.672Z,6.9
2024-05-09T10:44:30.547Z,7.5
2024-05-09T10:45:42.557Z,7.9
2024-05-09T10:46:54.724Z,7.3
2024-05-09T10:48:06.578Z,7.3
2024-05-09T10:49:18.638Z,7.9
2024-05-09T10:50:33.962Z,7.3
2024-05-09T10:51:42.997Z,6.9
2024-05-09T10:52:54.967Z,7.2
2024-05-09T10:54:06.966Z,7.2
2024-05-09T10:55:19.113Z,6.9
2024-05-09T10:56:30.978Z,6.5
2024-05-09T10:57:43.031Z,7.3
2024-05-09T10:58:54.963Z,7.1
2024-05-09T11:00:12.589Z,7.4
2024-05-09T11:01:19.027Z,7.5
2024-05-09T11:03:43.334Z,7.6
2024-05-09T11:04:55.068Z,7.7
2024-05-09T11:06:07.210Z,7.3
2024-05-09T11:07:19.020Z,7.7
2024-05-09T11:08:30.983Z,7.7
2024-05-09T11:09:43.007Z,7.7
2024-05-09T11:10:55.132Z,7.7
2024-05-09T11:12:06.988Z,8
2024-05-09T11:13:19.065Z,7.2
2024-05-09T11:14:30.973Z,7.2
2024-05-09T11:15:43.001Z,7.6
2024-05-09T11:16:54.988Z,7.2
2024-05-09T11:18:07.000Z,7.6
2024-05-09T11:19:19.087Z,7.2
2024-05-09T11:20:34.604Z,7.5
2024-05-09T11:21:43.063Z,7.1
2024-05-09T11:22:54.970Z,7.1
2024-05-09T11:24:09.641Z,7.1
2024-05-09T11:25:19.113Z,7.1
2024-05-09T11:26:30.969Z,7.1
2024-05-09T11:27:42.981Z,7.5
2024-05-09T11:28:54.966Z,7.6
2024-05-09T11:30:11.476Z,6.9
2024-05-09T11:31:19.211Z,7.1
2024-05-09T11:33:43.117Z,6.4
2024-05-09T11:34:54.979Z,6.5
2024-05-09T11:36:07.030Z,6.7
2024-05-09T11:37:19.117Z,7.8
2024-05-09T11:38:30.966Z,7.2
2024-05-09T11:39:43.007Z,7.3
2024-05-09T11:40:55.009Z,7.6
2024-05-09T11:42:07.001Z,8
2024-05-09T11:43:19.071Z,7.4
2024-05-09T11:44:30.971Z,7.9
2024-05-09T11:45:43.019Z,7.6
2024-05-09T11:46:54.972Z,8.3
2024-05-09T11:48:07.033Z,8
2024-05-09T11:49:19.052Z,8.2
2024-05-09T11:50:34.988Z,7.9
2024-05-09T11:51:43.089Z,8.2
2024-05-09T11:52:55.039Z,8.2
2024-05-09T11:54:07.023Z,8.1
2024-05-09T11:55:19.112Z,8.1
2024-05-09T11:56:31.045Z,8.4
2024-05-09T11:57:43.095Z,7.3
2024-05-09T11:58:55.025Z,7.2
2024-05-09T12:00:07.336Z,8.1
2024-05-09T12:01:19.104Z,7.3
2024-05-09T12:03:43.167Z,7.3
2024-05-09T12:04:55.060Z,7
2024-05-09T12:06:07.094Z,7
2024-05-09T12:07:19.141Z,6.7
2024-05-09T12:08:31.025Z,6.8
2024-05-09T12:09:43.065Z,7
2024-05-09T12:10:55.158Z,7.4
2024-05-09T12:12:07.032Z,7.4
2024-05-09T12:13:19.172Z,7.4
2024-05-09T12:14:31.023Z,7.9
2024-05-09T12:15:43.042Z,8.1
2024-05-09T12:16:55.052Z,8.1
2024-05-09T12:18:07.534Z,8.1
2024-05-09T12:19:19.073Z,8
2024-05-09T12:21:43.074Z,7.6
2024-05-09T12:22:55.024Z,7.6
2024-05-09T12:24:07.021Z,7.5
2024-05-09T12:25:19.142Z,6.8
2024-05-09T12:26:31.030Z,6.9
2024-05-09T12:27:43.060Z,6.9
2024-05-09T12:28:55.019Z,7
2024-05-09T12:30:08.931Z,7.5
2024-05-09T12:31:19.089Z,6.9
2024-05-09T12:33:43.113Z,8.2
2024-05-09T12:34:55.033Z,8.6
2024-05-09T12:36:07.032Z,9
2024-05-09T12:37:19.133Z,8.7
2024-05-09T12:38:31.079Z,8.3
2024-05-09T12:39:43.060Z,8.9
2024-05-09T12:40:55.195Z,8.2
2024-05-09T12:42:07.083Z,8.6
2024-05-09T12:43:19.110Z,8.9
2024-05-09T12:44:31.027Z,8.5
2024-05-09T12:45:43.067Z,8.4
2024-05-09T12:46:55.028Z,8.2
2024-05-09T12:48:07.352Z,8.1
2024-05-09T12:49:20.066Z,8
2024-05-09T12:50:32.012Z,8.4
2024-05-09T12:51:43.058Z,7.8
2024-05-09T12:52:55.023Z,7.4
2024-05-09T12:54:07.019Z,7.5
2024-05-09T12:55:19.084Z,7.9
2024-05-09T12:56:31.025Z,8
2024-05-09T12:57:43.041Z,8.1
2024-05-09T12:58:55.029Z,7.4
2024-05-09T13:00:07.468Z,7.2
2024-05-09T13:01:19.071Z,7
2024-05-09T13:03:43.138Z,7.8
2024-05-09T13:04:55.105Z,7.8
2024-05-09T13:06:07.024Z,8.8
2024-05-09T13:07:19.052Z,8.5
2024-05-09T13:08:31.019Z,7.8
2024-05-09T13:09:43.047Z,8.9
2024-05-09T13:10:55.191Z,9.1
2024-05-09T13:12:07.058Z,8.6
2024-05-09T13:13:19.203Z,7.9
2024-05-09T13:14:31.035Z,7.9
2024-05-09T13:15:43.038Z,7.6
2024-05-09T13:16:55.061Z,8.1
2024-05-09T13:18:07.225Z,8.1
2024-05-09T13:19:19.050Z,8.1
2024-05-09T13:20:32.550Z,8.1
2024-05-09T13:21:43.050Z,8.7
2024-05-09T13:22:55.030Z,8.3
2024-05-09T13:24:07.033Z,8.3
2024-05-09T13:25:19.070Z,8.3
2024-05-09T13:26:31.023Z,8
2024-05-09T13:27:43.060Z,8.2
2024-05-09T13:28:55.030Z,8.5
2024-05-09T13:30:11.846Z,8.7
2024-05-09T13:31:19.203Z,8
2024-05-09T13:33:43.104Z,8.5
2024-05-09T13:34:55.039Z,8.5
2024-05-09T13:36:07.022Z,8.7
2024-05-09T13:37:19.054Z,8.6
2024-05-09T13:38:31.018Z,8.5
2024-05-09T13:39:43.057Z,8.4
2024-05-09T13:40:55.133Z,8.7
2024-05-09T13:42:07.077Z,8.6
2024-05-09T13:43:19.215Z,8.2
2024-05-09T13:44:31.024Z,8.5
2024-05-09T13:45:43.201Z,8.1
2024-05-09T13:46:55.053Z,8.3
2024-05-09T13:48:07.281Z,8.2
2024-05-09T13:49:19.058Z,8.2
2024-05-09T13:50:33.535Z,7.6
2024-05-09T13:51:43.112Z,7.9
2024-05-09T13:52:55.023Z,8
2024-05-09T13:54:07.017Z,7.7
2024-05-09T13:55:19.035Z,7.5
2024-05-09T13:56:31.028Z,7.7
2024-05-09T13:57:43.044Z,7.4
2024-05-09T13:58:55.021Z,7.6
2024-05-09T14:00:09.656Z,7.3
2024-05-09T14:01:19.073Z,7.2
2024-05-09T14:03:43.131Z,7.2
2024-05-09T14:04:55.135Z,7.8
2024-05-09T14:06:08.782Z,7.9
2024-05-09T14:07:19.034Z,8
2024-05-09T14:08:31.026Z,7.4
2024-05-09T14:09:43.036Z,8.2
2024-05-09T14:10:55.040Z,8
2024-05-09T14:12:08.586Z,8.1
2024-05-09T14:13:19.041Z,8.5
2024-05-09T14:14:31.018Z,8.8
2024-05-09T14:15:43.089Z,9
2024-05-09T14:16:55.107Z,8.9
2024-05-09T14:18:08.698Z,8.9
2024-05-09T14:19:19.066Z,9.1
2024-05-09T14:20:32.068Z,9.3
2024-05-09T14:21:43.039Z,9.1
2024-05-09T14:22:55.015Z,8.9
2024-05-09T14:24:07.023Z,9
2024-05-09T14:25:19.132Z,8.5
2024-05-09T14:26:31.025Z,8.7
2024-05-09T14:27:43.107Z,8
2024-05-09T14:28:55.020Z,7.6
2024-05-09T14:30:09.494Z,8
2024-05-09T14:31:19.049Z,7.3
2024-05-09T14:33:43.113Z,7.8
2024-05-09T14:34:55.045Z,8.2
2024-05-09T14:36:07.018Z,8.3
2024-05-09T14:37:19.076Z,8
2024-05-09T14:38:31.036Z,8.1
2024-05-09T14:39:43.059Z,8.5
2024-05-09T14:40:55.259Z,8.7
2024-05-09T14:42:07.043Z,8.4
2024-05-09T14:43:19.029Z,8.4
2024-05-09T14:44:31.021Z,8.5
2024-05-09T14:45:43.547Z,8.6
2024-05-09T14:46:55.095Z,8.6
2024-05-09T14:48:07.117Z,7.9
2024-05-09T14:49:19.117Z,7.6
2024-05-09T14:50:34.977Z,7.6
2024-05-09T14:51:43.045Z,8.1
2024-05-09T14:52:55.019Z,8
2024-05-09T14:54:07.018Z,8
2024-05-09T14:55:19.037Z,8
2024-05-09T14:56:31.022Z,8.2
2024-05-09T14:57:43.043Z,8.2
2024-05-09T14:58:55.022Z,7.9
2024-05-09T15:00:09.090Z,7.7
2024-05-09T15:01:19.216Z,8.1
2024-05-09T15:03:43.057Z,8
2024-05-09T15:04:55.086Z,7.7
2024-05-09T15:06:07.116Z,8.1
2024-05-09T15:07:19.107Z,8.6
2024-05-09T15:08:31.015Z,9
2024-05-09T15:09:43.030Z,9
2024-05-09T15:10:55.124Z,8.5
2024-05-09T15:12:07.015Z,9.1
2024-05-09T15:13:19.142Z,8.7
2024-05-09T15:14:31.009Z,8.6
2024-05-09T15:15:43.054Z,8.9
2024-05-09T15:16:55.016Z,8.1
2024-05-09T15:18:07.250Z,8.3
2024-05-09T15:19:19.178Z,8.6
2024-05-09T15:20:34.055Z,8.4
2024-05-09T15:21:43.052Z,8.8
2024-05-09T15:22:55.014Z,8.4
2024-05-09T15:24:07.039Z,8.9
2024-05-09T15:25:19.032Z,8.9
2024-05-09T15:26:31.021Z,8.6
2024-05-09T15:27:43.037Z,8.9
2024-05-09T15:28:55.029Z,8.6
2024-05-09T15:30:10.329Z,8.6
2024-05-09T15:31:19.048Z,8.6
2024-05-09T15:33:43.137Z,8.9
2024-05-09T15:34:55.009Z,8.6
2024-05-09T15:36:07.011Z,8.5
2024-05-09T15:37:19.181Z,8.9
2024-05-09T15:38:31.013Z,8.8
2024-05-09T15:39:43.051Z,8.7
2024-05-09T15:40:55.097Z,9.3
2024-05-09T15:42:07.013Z,9.3
2024-05-09T15:43:19.034Z,9.2
2024-05-09T15:44:31.011Z,9.4
2024-05-09T15:45:43.040Z,9.3
2024-05-09T15:46:55.011Z,9.2
2024-05-09T15:48:07.122Z,9.1
2024-05-09T15:49:19.138Z,9.4
2024-05-09T15:50:35.708Z,8.9
2024-05-09T15:51:43.127Z,8.9
2024-05-09T15:52:55.086Z,8.9
2024-05-09T15:54:07.074Z,9.3
2024-05-09T15:55:19.100Z,9.3
2024-05-09T15:56:31.070Z,9.4
2024-05-09T15:57:43.082Z,9.4
2024-05-09T15:58:55.074Z,9
2024-05-09T16:00:09.818Z,9
2024-05-09T16:01:19.162Z,9
2024-05-09T16:03:43.380Z,9.1
2024-05-09T16:04:55.144Z,9.2
2024-05-09T16:06:07.070Z,8.9
2024-05-09T16:07:19.264Z,8.9
2024-05-09T16:08:31.072Z,9.3
2024-05-09T16:09:43.092Z,9
2024-05-09T16:10:55.268Z,9
2024-05-09T16:12:07.081Z,9.3
2024-05-09T16:13:19.289Z,9.2
2024-05-09T16:14:31.076Z,8.9
2024-05-09T16:15:43.095Z,9.5
2024-05-09T16:16:55.158Z,9.2
2024-05-09T16:18:07.128Z,9.2
2024-05-09T16:19:19.091Z,9.2
2024-05-09T16:20:37.180Z,9.4
2024-05-09T16:21:43.110Z,9.8
2024-05-09T16:22:55.063Z,9.4
2024-05-09T16:24:07.072Z,9.4
2024-05-09T16:25:19.196Z,9.4
2024-05-09T16:26:31.074Z,9.4
2024-05-09T16:27:43.148Z,9.7
2024-05-09T16:28:55.085Z,9.7
2024-05-09T16:30:09.388Z,9.6
2024-05-09T16:31:19.104Z,9.9
2024-05-09T16:33:43.151Z,9.5
2024-05-09T16:34:55.126Z,9.7
2024-05-09T16:36:07.073Z,9.6
2024-05-09T16:37:19.111Z,9.6
2024-05-09T16:38:31.069Z,9.5
2024-05-09T16:39:43.108Z,9.5
2024-05-09T16:40:55.196Z,9.7
2024-05-09T16:42:07.130Z,9.3
2024-05-09T16:43:19.216Z,9.6
2024-05-09T16:44:33.032Z,9.5
2024-05-09T16:45:43.111Z,9.5
2024-05-09T16:46:55.173Z,9.2
2024-05-09T16:48:07.269Z,9.5
2024-05-09T16:49:19.107Z,9.5
2024-05-09T16:50:32.289Z,9.5
2024-05-09T16:51:43.076Z,9.5
2024-05-09T16:52:55.076Z,9.4
2024-05-09T16:54:07.073Z,9.4
2024-05-09T16:55:19.197Z,9.4
2024-05-09T16:56:31.062Z,9.4
2024-05-09T16:57:43.144Z,9.7
2024-05-09T16:58:55.068Z,9.4
2024-05-09T17:00:11.704Z,9.4
2024-05-09T17:01:19.202Z,9.7
2024-05-09T17:03:43.269Z,9.3
2024-05-09T17:04:55.119Z,9.3
2024-05-09T17:06:07.069Z,9.6
2024-05-09T17:07:19.203Z,9.6
2024-05-09T17:08:31.060Z,9.5
2024-05-09T17:09:43.065Z,9.5
2024-05-09T17:10:55.297Z,9.5
2024-05-09T17:12:07.086Z,9.5
2024-05-09T17:13:19.592Z,9.5
2024-05-09T17:14:31.074Z,9.5
2024-05-09T17:15:43.094Z,9.7
2024-05-09T17:16:55.112Z,10
2024-05-09T17:18:07.578Z,9.7